sensor_id;sensor_type;location;lat;lon;timestamp;pressure;altitude;pressure_sealevel;temperature;humidity
54900;BME280;40801;41.924;25.562;2023-03-03T00:00:45;99826.38;;;6.91;77.77
54900;BME280;40801;41.924;25.562;2023-03-03T00:03:14;99819.69;;;6.89;77.71
54900;BME280;40801;41.924;25.562;2023-03-03T00:05:40;99819.97;;;6.82;77.98
54900;BME280;40801;41.924;25.562;2023-03-03T00:08:06;99814.06;;;6.80;78.01
54900;BME280;40801;41.924;25.562;2023-03-03T00:10:32;99814.59;;;6.92;77.79
54900;BME280;40801;41.924;25.562;2023-03-03T00:12:58;99819.16;;;6.92;77.21
54900;BME280;40801;41.924;25.562;2023-03-03T00:15:24;99820.22;;;6.91;77.05
54900;BME280;40801;41.924;25.562;2023-03-03T00:17:51;99816.75;;;6.95;77.30
54900;BME280;40801;41.924;25.562;2023-03-03T00:25:44;99800.91;;;6.94;76.81
54900;BME280;40801;41.924;25.562;2023-03-03T00:30:47;99787.50;;;6.94;77.12
54900;BME280;40801;41.924;25.562;2023-03-03T00:33:23;99783.78;;;6.95;76.00
54900;BME280;40801;41.924;25.562;2023-03-03T00:35:52;99789.41;;;6.78;77.33
54900;BME280;40801;41.924;25.562;2023-03-03T00:38:17;99788.06;;;6.91;76.98
54900;BME280;40801;41.924;25.562;2023-03-03T00:40:43;99772.50;;;7.03;76.57
54900;BME280;40801;41.924;25.562;2023-03-03T00:43:21;99781.34;;;6.93;76.16
54900;BME280;40801;41.924;25.562;2023-03-03T00:50:42;99776.03;;;6.73;76.70
54900;BME280;40801;41.924;25.562;2023-03-03T00:53:13;99779.22;;;6.65;77.08
54900;BME280;40801;41.924;25.562;2023-03-03T00:55:41;99772.81;;;6.71;76.83
54900;BME280;40801;41.924;25.562;2023-03-03T00:58:06;99772.00;;;6.80;76.91
54900;BME280;40801;41.924;25.562;2023-03-03T01:00:32;99766.88;;;6.89;76.33
54900;BME280;40801;41.924;25.562;2023-03-03T01:03:04;99774.38;;;6.92;76.22
54900;BME280;40801;41.924;25.562;2023-03-03T01:05:30;99765.53;;;6.92;75.94
54900;BME280;40801;41.924;25.562;2023-03-03T01:07:56;99770.63;;;6.88;76.47
54900;BME280;40801;41.924;25.562;2023-03-03T01:10:21;99774.66;;;6.91;76.00
54900;BME280;40801;41.924;25.562;2023-03-03T01:12:47;99776.53;;;6.95;75.79
54900;BME280;40801;41.924;25.562;2023-03-03T01:15:14;99764.47;;;6.93;76.26
54900;BME280;40801;41.924;25.562;2023-03-03T01:17:41;99771.19;;;6.95;76.18
54900;BME280;40801;41.924;25.562;2023-03-03T01:20:08;99756.69;;;6.96;76.50
54900;BME280;40801;41.924;25.562;2023-03-03T01:22:34;99764.47;;;7.03;75.63
54900;BME280;40801;41.924;25.562;2023-03-03T01:24:59;99760.72;;;6.99;75.53
54900;BME280;40801;41.924;25.562;2023-03-03T01:27:25;99762.56;;;7.03;75.54
54900;BME280;40801;41.924;25.562;2023-03-03T01:29:52;99761.50;;;6.99;75.29
54900;BME280;40801;41.924;25.562;2023-03-03T01:32:17;99767.13;;;7.03;75.23
54900;BME280;40801;41.924;25.562;2023-03-03T01:34:42;99762.06;;;6.96;75.89
54900;BME280;40801;41.924;25.562;2023-03-03T01:37:08;99758.00;;;6.94;75.60
54900;BME280;40801;41.924;25.562;2023-03-03T01:39:33;99752.94;;;6.97;75.76
54900;BME280;40801;41.924;25.562;2023-03-03T01:41:58;99747.84;;;7.01;75.49
54900;BME280;40801;41.924;25.562;2023-03-03T01:44:24;99748.94;;;6.95;75.71
54900;BME280;40801;41.924;25.562;2023-03-03T01:46:56;99755.63;;;6.97;75.40
54900;BME280;40801;41.924;25.562;2023-03-03T01:49:57;99748.38;;;6.93;75.40
54900;BME280;40801;41.924;25.562;2023-03-03T01:55:03;99746.78;;;6.97;75.03
54900;BME280;40801;41.924;25.562;2023-03-03T01:57:35;99757.78;;;6.95;75.39
54900;BME280;40801;41.924;25.562;2023-03-03T02:00:03;99757.50;;;7.02;75.48
54900;BME280;40801;41.924;25.562;2023-03-03T02:02:30;99755.34;;;7.04;75.23
54900;BME280;40801;41.924;25.562;2023-03-03T02:04:57;99766.59;;;7.06;75.12
54900;BME280;40801;41.924;25.562;2023-03-03T02:07:24;99764.97;;;7.05;74.94
54900;BME280;40801;41.924;25.562;2023-03-03T02:10:13;99764.19;;;6.89;75.53
54900;BME280;40801;41.924;25.562;2023-03-03T02:12:42;99758.31;;;6.97;75.32
54900;BME280;40801;41.924;25.562;2023-03-03T02:15:23;99759.38;;;6.86;75.83
54900;BME280;40801;41.924;25.562;2023-03-03T02:17:52;99761.25;;;6.86;76.12
54900;BME280;40801;41.924;25.562;2023-03-03T02:28:27;99762.31;;;7.00;75.75
54900;BME280;40801;41.924;25.562;2023-03-03T02:30:54;99754.25;;;7.05;75.78
54900;BME280;40801;41.924;25.562;2023-03-03T02:33:20;99750.50;;;7.06;75.90
54900;BME280;40801;41.924;25.562;2023-03-03T02:35:46;99748.59;;;7.11;75.53
54900;BME280;40801;41.924;25.562;2023-03-03T02:38:23;99752.34;;;7.10;75.77
54900;BME280;40801;41.924;25.562;2023-03-03T02:40:58;99745.13;;;7.06;75.76
54900;BME280;40801;41.924;25.562;2023-03-03T02:43:32;99751.03;;;7.03;76.03
54900;BME280;40801;41.924;25.562;2023-03-03T02:46:00;99740.56;;;7.06;76.11
54900;BME280;40801;41.924;25.562;2023-03-03T02:48:25;99747.00;;;7.10;75.81
54900;BME280;40801;41.924;25.562;2023-03-03T02:50:51;99741.63;;;7.10;75.84
54900;BME280;40801;41.924;25.562;2023-03-03T02:53:16;99731.72;;;7.06;75.86
54900;BME280;40801;41.924;25.562;2023-03-03T02:55:42;99736.84;;;7.02;75.99
54900;BME280;40801;41.924;25.562;2023-03-03T02:58:07;99750.81;;;6.94;76.28
54900;BME280;40801;41.924;25.562;2023-03-03T03:00:32;99743.25;;;7.06;75.88
54900;BME280;40801;41.924;25.562;2023-03-03T03:02:58;99746.47;;;7.08;75.48
54900;BME280;40801;41.924;25.562;2023-03-03T03:05:23;99739.53;;;6.97;76.21
54900;BME280;40801;41.924;25.562;2023-03-03T03:07:49;99739.25;;;6.99;76.30
54900;BME280;40801;41.924;25.562;2023-03-03T03:10:14;99731.19;;;7.04;76.34
54900;BME280;40801;41.924;25.562;2023-03-03T03:12:40;99733.09;;;6.98;76.12
54900;BME280;40801;41.924;25.562;2023-03-03T03:15:05;99733.38;;;6.87;76.89
54900;BME280;40801;41.924;25.562;2023-03-03T03:17:35;99745.97;;;6.91;76.77
54900;BME280;40801;41.924;25.562;2023-03-03T03:20:00;99736.31;;;6.95;76.35
54900;BME280;40801;41.924;25.562;2023-03-03T03:22:26;99737.13;;;6.91;76.27
54900;BME280;40801;41.924;25.562;2023-03-03T03:24:51;99729.06;;;6.91;76.44
54900;BME280;40801;41.924;25.562;2023-03-03T03:27:17;99731.22;;;6.89;76.60
54900;BME280;40801;41.924;25.562;2023-03-03T03:29:43;99727.75;;;6.88;76.77
54900;BME280;40801;41.924;25.562;2023-03-03T03:32:08;99728.81;;;6.87;76.27
54900;BME280;40801;41.924;25.562;2023-03-03T03:34:34;99728.81;;;6.92;76.42
54900;BME280;40801;41.924;25.562;2023-03-03T03:36:59;99724.28;;;6.82;76.76
54900;BME280;40801;41.924;25.562;2023-03-03T03:39:25;99724.84;;;6.74;77.30
54900;BME280;40801;41.924;25.562;2023-03-03T03:41:50;99726.94;;;6.82;77.00
54900;BME280;40801;41.924;25.562;2023-03-03T03:44:15;99725.03;;;6.93;77.07
54900;BME280;40801;41.924;25.562;2023-03-03T03:46:41;99722.13;;;6.84;77.16
54900;BME280;40801;41.924;25.562;2023-03-03T03:49:06;99718.63;;;6.89;76.69
54900;BME280;40801;41.924;25.562;2023-03-03T03:51:32;99726.91;;;6.93;76.70
54900;BME280;40801;41.924;25.562;2023-03-03T03:53:59;99724.78;;;6.90;76.70
54900;BME280;40801;41.924;25.562;2023-03-03T03:56:25;99716.47;;;6.96;76.66
54900;BME280;40801;41.924;25.562;2023-03-03T03:58:53;99728.53;;;6.99;76.61
54900;BME280;40801;41.924;25.562;2023-03-03T04:01:22;99724.78;;;6.90;76.85
54900;BME280;40801;41.924;25.562;2023-03-03T04:03:47;99722.66;;;6.97;76.66
54900;BME280;40801;41.924;25.562;2023-03-03T04:06:13;99724.78;;;7.00;76.50
54900;BME280;40801;41.924;25.562;2023-03-03T04:08:39;99719.97;;;6.92;77.17
54900;BME280;40801;41.924;25.562;2023-03-03T04:11:04;99717.81;;;6.99;76.38
54900;BME280;40801;41.924;25.562;2023-03-03T04:13:30;99713.53;;;6.98;76.25
54900;BME280;40801;41.924;25.562;2023-03-03T04:15:59;99720.50;;;6.99;76.41
54900;BME280;40801;41.924;25.562;2023-03-03T04:18:25;99711.94;;;6.97;76.20
54900;BME280;40801;41.924;25.562;2023-03-03T04:20:51;99714.34;;;6.98;76.27
54900;BME280;40801;41.924;25.562;2023-03-03T04:23:18;99721.00;;;7.06;76.04
54900;BME280;40801;41.924;25.562;2023-03-03T04:25:45;99718.31;;;7.06;75.48
54900;BME280;40801;41.924;25.562;2023-03-03T04:28:11;99714.81;;;7.10;75.95
54900;BME280;40801;41.924;25.562;2023-03-03T04:30:36;99718.06;;;6.92;76.01
54900;BME280;40801;41.924;25.562;2023-03-03T04:33:02;99718.41;;;6.75;76.36
54900;BME280;40801;41.924;25.562;2023-03-03T04:35:28;99716.00;;;6.74;76.43
54900;BME280;40801;41.924;25.562;2023-03-03T04:37:53;99717.88;;;6.53;77.57
54900;BME280;40801;41.924;25.562;2023-03-03T04:40:18;99719.22;;;6.56;77.82
54900;BME280;40801;41.924;25.562;2023-03-03T04:42:44;99718.66;;;6.64;77.50
54900;BME280;40801;41.924;25.562;2023-03-03T04:45:10;99716.28;;;6.67;77.31
54900;BME280;40801;41.924;25.562;2023-03-03T04:47:35;99724.06;;;6.53;77.76
54900;BME280;40801;41.924;25.562;2023-03-03T04:50:00;99714.41;;;6.47;77.77
54900;BME280;40801;41.924;25.562;2023-03-03T04:52:26;99713.59;;;6.52;78.00
54900;BME280;40801;41.924;25.562;2023-03-03T04:54:52;99718.41;;;6.60;77.92
54900;BME280;40801;41.924;25.562;2023-03-03T04:57:18;99705.28;;;6.69;77.18
54900;BME280;40801;41.924;25.562;2023-03-03T04:59:43;99700.19;;;6.62;77.31
54900;BME280;40801;41.924;25.562;2023-03-03T05:02:09;99716.00;;;6.74;77.46
54900;BME280;40801;41.924;25.562;2023-03-03T05:04:34;99725.88;;;6.83;76.19
54900;BME280;40801;41.924;25.562;2023-03-03T05:07:00;99729.38;;;6.84;76.66
54900;BME280;40801;41.924;25.562;2023-03-03T05:09:25;99726.44;;;6.80;76.30
54900;BME280;40801;41.924;25.562;2023-03-03T05:11:51;99719.19;;;6.76;77.01
54900;BME280;40801;41.924;25.562;2023-03-03T05:14:16;99728.31;;;6.75;77.51
54900;BME280;40801;41.924;25.562;2023-03-03T05:16:42;99724.56;;;6.76;76.63
54900;BME280;40801;41.924;25.562;2023-03-03T05:19:07;99725.91;;;6.78;77.14
54900;BME280;40801;41.924;25.562;2023-03-03T05:21:32;99725.63;;;6.75;76.81
54900;BME280;40801;41.924;25.562;2023-03-03T05:23:58;99728.59;;;6.68;77.13
54900;BME280;40801;41.924;25.562;2023-03-03T05:26:23;99727.50;;;6.64;77.24
54900;BME280;40801;41.924;25.562;2023-03-03T05:28:49;99729.66;;;6.62;77.61
54900;BME280;40801;41.924;25.562;2023-03-03T05:31:14;99723.75;;;6.75;77.22
54900;BME280;40801;41.924;25.562;2023-03-03T05:33:40;99726.69;;;6.79;77.67
54900;BME280;40801;41.924;25.562;2023-03-03T05:36:06;99730.97;;;6.85;76.92
54900;BME280;40801;41.924;25.562;2023-03-03T05:38:31;99723.50;;;6.77;77.64
54900;BME280;40801;41.924;25.562;2023-03-03T05:40:57;99727.75;;;6.83;76.96
54900;BME280;40801;41.924;25.562;2023-03-03T05:43:22;99726.13;;;6.87;76.44
54900;BME280;40801;41.924;25.562;2023-03-03T05:45:54;99720.50;;;6.89;76.66
54900;BME280;40801;41.924;25.562;2023-03-03T05:48:19;99729.34;;;6.89;76.68
54900;BME280;40801;41.924;25.562;2023-03-03T05:50:45;99729.91;;;6.86;76.89
54900;BME280;40801;41.924;25.562;2023-03-03T05:53:10;99736.03;;;6.92;76.75
54900;BME280;40801;41.924;25.562;2023-03-03T05:55:35;99735.25;;;6.91;76.92
54900;BME280;40801;41.924;25.562;2023-03-03T05:58:01;99732.84;;;6.79;76.51
54900;BME280;40801;41.924;25.562;2023-03-03T06:00:26;99729.91;;;6.76;76.59
54900;BME280;40801;41.924;25.562;2023-03-03T06:02:52;99732.06;;;6.79;77.28
54900;BME280;40801;41.924;25.562;2023-03-03T06:05:17;99722.69;;;6.76;77.26
54900;BME280;40801;41.924;25.562;2023-03-03T06:07:42;99737.66;;;6.88;77.10
54900;BME280;40801;41.924;25.562;2023-03-03T06:10:09;99730.16;;;6.95;77.57
54900;BME280;40801;41.924;25.562;2023-03-03T06:12:35;99733.41;;;6.81;77.69
54900;BME280;40801;41.924;25.562;2023-03-03T06:15:01;99737.13;;;6.96;77.43
54900;BME280;40801;41.924;25.562;2023-03-03T06:17:27;99736.31;;;6.90;77.17
54900;BME280;40801;41.924;25.562;2023-03-03T06:19:52;99730.16;;;6.95;77.32
54900;BME280;40801;41.924;25.562;2023-03-03T06:22:18;99739.78;;;7.01;77.64
54900;BME280;40801;41.924;25.562;2023-03-03T06:24:43;99731.75;;;6.91;77.28
54900;BME280;40801;41.924;25.562;2023-03-03T06:27:09;99739.00;;;7.00;77.32
54900;BME280;40801;41.924;25.562;2023-03-03T06:29:34;99736.53;;;7.09;76.97
54900;BME280;40801;41.924;25.562;2023-03-03T06:32:00;99726.63;;;7.09;76.71
54900;BME280;40801;41.924;25.562;2023-03-03T06:34:25;99739.44;;;7.23;76.89
54900;BME280;40801;41.924;25.562;2023-03-03T06:36:50;99736.78;;;7.18;76.52
54900;BME280;40801;41.924;25.562;2023-03-03T06:39:16;99747.25;;;7.14;76.57
54900;BME280;40801;41.924;25.562;2023-03-03T06:41:42;99733.59;;;7.05;76.68
54900;BME280;40801;41.924;25.562;2023-03-03T06:44:07;99740.31;;;7.03;76.91
54900;BME280;40801;41.924;25.562;2023-03-03T06:46:32;99740.25;;;7.18;76.50
54900;BME280;40801;41.924;25.562;2023-03-03T06:48:58;99738.09;;;7.20;76.43
54900;BME280;40801;41.924;25.562;2023-03-03T06:53:55;99736.50;;;7.29;75.95
54900;BME280;40801;41.924;25.562;2023-03-03T06:56:23;99737.53;;;7.33;75.97
54900;BME280;40801;41.924;25.562;2023-03-03T06:58:49;99735.13;;;7.32;76.35
54900;BME280;40801;41.924;25.562;2023-03-03T07:01:17;99729.78;;;7.22;76.78
54900;BME280;40801;41.924;25.562;2023-03-03T07:03:42;99726.31;;;7.26;76.49
54900;BME280;40801;41.924;25.562;2023-03-03T07:06:26;99735.97;;;7.17;77.16
54900;BME280;40801;41.924;25.562;2023-03-03T07:08:53;99730.31;;;7.29;76.37
54900;BME280;40801;41.924;25.562;2023-03-03T07:11:21;99728.97;;;7.31;76.07
54900;BME280;40801;41.924;25.562;2023-03-03T07:13:52;99725.19;;;7.37;76.18
54900;BME280;40801;41.924;25.562;2023-03-03T07:16:23;99725.19;;;7.37;76.51
54900;BME280;40801;41.924;25.562;2023-03-03T07:18:54;99728.91;;;7.41;75.93
54900;BME280;40801;41.924;25.562;2023-03-03T07:21:32;99730.50;;;7.47;75.57
54900;BME280;40801;41.924;25.562;2023-03-03T07:23:59;99733.41;;;7.51;75.78
54900;BME280;40801;41.924;25.562;2023-03-03T07:26:27;99730.28;;;7.34;76.46
54900;BME280;40801;41.924;25.562;2023-03-03T07:28:59;99729.47;;;7.38;76.56
54900;BME280;40801;41.924;25.562;2023-03-03T07:33:57;99729.53;;;7.28;76.52
54900;BME280;40801;41.924;25.562;2023-03-03T07:36:27;99730.03;;;7.30;77.05
54900;BME280;40801;41.924;25.562;2023-03-03T07:38:57;99727.59;;;7.39;76.59
54900;BME280;40801;41.924;25.562;2023-03-03T07:41:23;99727.28;;;7.45;76.70
54900;BME280;40801;41.924;25.562;2023-03-03T07:43:53;99726.44;;;7.55;76.37
54900;BME280;40801;41.924;25.562;2023-03-03T07:46:24;99723.50;;;7.57;76.71
54900;BME280;40801;41.924;25.562;2023-03-03T07:48:52;99725.00;;;7.73;76.09
54900;BME280;40801;41.924;25.562;2023-03-03T07:51:22;99729.31;;;7.69;75.28
54900;BME280;40801;41.924;25.562;2023-03-03T07:53:50;99727.72;;;7.68;76.24
54900;BME280;40801;41.924;25.562;2023-03-03T07:56:33;99733.59;;;7.70;75.89
54900;BME280;40801;41.924;25.562;2023-03-03T07:59:02;99727.97;;;7.71;75.38
54900;BME280;40801;41.924;25.562;2023-03-03T08:01:42;99730.94;;;7.65;75.45
54900;BME280;40801;41.924;25.562;2023-03-03T08:06:59;99726.19;;;7.57;75.73
54900;BME280;40801;41.924;25.562;2023-03-03T08:09:46;99730.22;;;7.54;76.90
54900;BME280;40801;41.924;25.562;2023-03-03T08:12:30;99728.34;;;7.55;76.50
54900;BME280;40801;41.924;25.562;2023-03-03T08:15:16;99729.34;;;7.64;75.43
54900;BME280;40801;41.924;25.562;2023-03-03T08:17:43;99739.78;;;7.70;75.17
54900;BME280;40801;41.924;25.562;2023-03-03T08:20:43;99733.19;;;7.53;76.30
54900;BME280;40801;41.924;25.562;2023-03-03T08:23:10;99729.41;;;7.54;76.77
54900;BME280;40801;41.924;25.562;2023-03-03T08:25:36;99727.75;;;7.63;76.61
54900;BME280;40801;41.924;25.562;2023-03-03T08:28:02;99727.13;;;7.76;76.50
54900;BME280;40801;41.924;25.562;2023-03-03T08:30:28;99725.78;;;7.73;76.61
54900;BME280;40801;41.924;25.562;2023-03-03T08:32:53;99723.63;;;7.75;77.22
54900;BME280;40801;41.924;25.562;2023-03-03T08:35:19;99720.16;;;7.75;77.31
54900;BME280;40801;41.924;25.562;2023-03-03T08:37:44;99711.06;;;7.71;76.64
54900;BME280;40801;41.924;25.562;2023-03-03T08:40:10;99710.50;;;7.74;77.53
54900;BME280;40801;41.924;25.562;2023-03-03T08:42:35;99714.41;;;7.92;77.05
54900;BME280;40801;41.924;25.562;2023-03-03T08:45:01;99707.78;;;7.79;77.30
54900;BME280;40801;41.924;25.562;2023-03-03T08:47:26;99703.69;;;7.92;77.47
54900;BME280;40801;41.924;25.562;2023-03-03T08:49:51;99712.22;;;7.99;76.92
54900;BME280;40801;41.924;25.562;2023-03-03T08:52:18;99711.72;;;7.92;77.02
54900;BME280;40801;41.924;25.562;2023-03-03T08:54:44;99706.88;;;7.94;78.12
54900;BME280;40801;41.924;25.562;2023-03-03T08:57:09;99701.16;;;8.05;77.35
54900;BME280;40801;41.924;25.562;2023-03-03T08:59:35;99698.19;;;8.07;77.12
54900;BME280;40801;41.924;25.562;2023-03-03T09:02:04;99700.50;;;8.24;77.64
54900;BME280;40801;41.924;25.562;2023-03-03T09:04:29;99705.00;;;8.28;77.06
54900;BME280;40801;41.924;25.562;2023-03-03T09:06:55;99700.13;;;8.41;77.00
54900;BME280;40801;41.924;25.562;2023-03-03T09:09:20;99699.34;;;8.30;76.29
54900;BME280;40801;41.924;25.562;2023-03-03T09:11:46;99701.06;;;8.21;77.25
54900;BME280;40801;41.924;25.562;2023-03-03T09:14:13;99698.66;;;8.19;77.30
54900;BME280;40801;41.924;25.562;2023-03-03T09:16:44;99698.84;;;8.28;76.44
54900;BME280;40801;41.924;25.562;2023-03-03T09:19:32;99696.72;;;8.25;76.34
54900;BME280;40801;41.924;25.562;2023-03-03T09:22:16;99693.00;;;8.21;77.09
54900;BME280;40801;41.924;25.562;2023-03-03T09:24:42;99689.75;;;8.24;77.02
54900;BME280;40801;41.924;25.562;2023-03-03T09:27:29;99682.94;;;8.36;76.61
54900;BME280;40801;41.924;25.562;2023-03-03T09:30:00;99682.75;;;8.23;75.99
54900;BME280;40801;41.924;25.562;2023-03-03T09:32:33;99682.75;;;8.23;76.62
54900;BME280;40801;41.924;25.562;2023-03-03T09:35:21;99687.84;;;8.24;76.53
54900;BME280;40801;41.924;25.562;2023-03-03T09:37:48;99682.66;;;8.33;75.58
54900;BME280;40801;41.924;25.562;2023-03-03T09:43:08;99681.97;;;8.22;76.78
54900;BME280;40801;41.924;25.562;2023-03-03T09:51:43;99689.56;;;8.15;76.74
54900;BME280;40801;41.924;25.562;2023-03-03T09:54:18;99682.44;;;8.29;76.63
54900;BME280;40801;41.924;25.562;2023-03-03T09:57:13;99688.00;;;8.43;75.69
54900;BME280;40801;41.924;25.562;2023-03-03T09:59:40;99682.75;;;8.23;75.20
54900;BME280;40801;41.924;25.562;2023-03-03T10:12:46;99659.41;;;8.52;75.06
54900;BME280;40801;41.924;25.562;2023-03-03T10:18:32;99651.91;;;8.49;74.43
54900;BME280;40801;41.924;25.562;2023-03-03T10:21:33;99653.97;;;8.57;74.77
54900;BME280;40801;41.924;25.562;2023-03-03T10:24:09;99658.72;;;8.65;74.82
54900;BME280;40801;41.924;25.562;2023-03-03T10:27:22;99656.84;;;8.66;73.95
54900;BME280;40801;41.924;25.562;2023-03-03T10:32:36;99656.91;;;8.61;74.52
54900;BME280;40801;41.924;25.562;2023-03-03T10:35:12;99657.81;;;8.51;73.96
54900;BME280;40801;41.924;25.562;2023-03-03T10:40:34;99657.69;;;8.61;73.40
54900;BME280;40801;41.924;25.562;2023-03-03T10:46:01;99655.88;;;8.57;74.17
54900;BME280;40801;41.924;25.562;2023-03-03T10:51:24;99655.94;;;8.52;73.79
54900;BME280;40801;41.924;25.562;2023-03-03T10:55:19;99643.97;;;8.39;74.03
54900;BME280;40801;41.924;25.562;2023-03-03T10:57:28;99648.78;;;8.37;74.97
54900;BME280;40801;41.924;25.562;2023-03-03T11:00:14;99641.03;;;8.30;75.93
54900;BME280;40801;41.924;25.562;2023-03-03T11:08:16;99631.63;;;8.33;76.41
54900;BME280;40801;41.924;25.562;2023-03-03T11:22:09;99612.22;;;8.65;76.41
54900;BME280;40801;41.924;25.562;2023-03-03T11:36:14;99606.03;;;8.88;75.84
54900;BME280;40801;41.924;25.562;2023-03-03T11:42:01;99600.56;;;8.75;74.92
54900;BME280;40801;41.924;25.562;2023-03-03T11:44:40;99605.13;;;8.98;74.72
54900;BME280;40801;41.924;25.562;2023-03-03T11:47:28;99590.09;;;8.97;74.50
54900;BME280;40801;41.924;25.562;2023-03-03T11:55:41;99589.41;;;8.86;75.14
54900;BME280;40801;41.924;25.562;2023-03-03T12:01:03;99580.28;;;9.06;72.61
54900;BME280;40801;41.924;25.562;2023-03-03T12:03:46;99584.06;;;9.24;73.42
54900;BME280;40801;41.924;25.562;2023-03-03T12:06:52;99580.44;;;9.34;72.27
54900;BME280;40801;41.924;25.562;2023-03-03T12:09:29;99573.22;;;9.48;71.91
54900;BME280;40801;41.924;25.562;2023-03-03T12:12:15;99568.69;;;9.62;70.97
54900;BME280;40801;41.924;25.562;2023-03-03T12:26:08;99570.63;;;9.75;69.79
54900;BME280;40801;41.924;25.562;2023-03-03T12:37:20;99576.47;;;9.96;68.43
54900;BME280;40801;41.924;25.562;2023-03-03T12:47:45;99582.56;;;9.88;69.95
54900;BME280;40801;41.924;25.562;2023-03-03T12:50:24;99581.31;;;9.80;70.15
54900;BME280;40801;41.924;25.562;2023-03-03T12:55:52;99572.72;;;9.78;69.81
54900;BME280;40801;41.924;25.562;2023-03-03T12:58:44;99566.91;;;9.90;68.34
54900;BME280;40801;41.924;25.562;2023-03-03T13:04:27;99559.50;;;10.28;67.95
54900;BME280;40801;41.924;25.562;2023-03-03T13:07:01;99558.03;;;10.49;68.07
54900;BME280;40801;41.924;25.562;2023-03-03T13:09:43;99560.22;;;10.75;67.51
54900;BME280;40801;41.924;25.562;2023-03-03T13:15:13;99558.78;;;11.05;65.05
54900;BME280;40801;41.924;25.562;2023-03-03T13:25:41;99556.56;;;13.15;59.97
54900;BME280;40801;41.924;25.562;2023-03-03T13:30:47;99552.22;;;12.80;57.65
54900;BME280;40801;41.924;25.562;2023-03-03T13:33:23;99544.03;;;12.54;57.80
54900;BME280;40801;41.924;25.562;2023-03-03T13:36:00;99546.38;;;11.85;59.80
54900;BME280;40801;41.924;25.562;2023-03-03T13:38:31;99541.03;;;11.71;60.40
54900;BME280;40801;41.924;25.562;2023-03-03T13:55:48;99535.53;;;13.12;56.51
54900;BME280;40801;41.924;25.562;2023-03-03T13:58:36;99536.09;;;12.66;55.73
54900;BME280;40801;41.924;25.562;2023-03-03T14:01:21;99534.06;;;12.32;58.10
54900;BME280;40801;41.924;25.562;2023-03-03T14:06:59;99531.69;;;11.77;59.22
54900;BME280;40801;41.924;25.562;2023-03-03T14:15:10;99538.81;;;10.65;59.24
54900;BME280;40801;41.924;25.562;2023-03-03T14:20:47;99533.75;;;10.36;61.62
54900;BME280;40801;41.924;25.562;2023-03-03T14:26:14;99538.84;;;10.37;61.80
54900;BME280;40801;41.924;25.562;2023-03-03T14:28:45;99530.06;;;10.45;61.69
54900;BME280;40801;41.924;25.562;2023-03-03T14:31:38;99535.53;;;10.40;62.20
54900;BME280;40801;41.924;25.562;2023-03-03T14:36:48;99534.06;;;10.48;62.77
54900;BME280;40801;41.924;25.562;2023-03-03T14:39:35;99530.25;;;10.49;61.99
54900;BME280;40801;41.924;25.562;2023-03-03T14:42:06;99527.75;;;10.39;62.44
54900;BME280;40801;41.924;25.562;2023-03-03T14:44:49;99535.84;;;10.52;61.56
54900;BME280;40801;41.924;25.562;2023-03-03T14:47:25;99530.56;;;10.34;61.99
54900;BME280;40801;41.924;25.562;2023-03-03T14:49:55;99530.47;;;10.25;62.42
54900;BME280;40801;41.924;25.562;2023-03-03T14:52:28;99525.00;;;10.11;62.58
54900;BME280;40801;41.924;25.562;2023-03-03T14:54:59;99523.28;;;10.20;62.33
54900;BME280;40801;41.924;25.562;2023-03-03T15:03:02;99523.50;;;9.91;64.01
54900;BME280;40801;41.924;25.562;2023-03-03T15:05:33;99525.25;;;9.82;63.97
54900;BME280;40801;41.924;25.562;2023-03-03T15:10:50;99517.97;;;9.83;63.70
54900;BME280;40801;41.924;25.562;2023-03-03T15:18:24;99538.13;;;9.53;64.39
54900;BME280;40801;41.924;25.562;2023-03-03T15:32:05;99533.81;;;9.38;65.38
54900;BME280;40801;41.924;25.562;2023-03-03T15:35:02;99542.97;;;9.37;65.27
54900;BME280;40801;41.924;25.562;2023-03-03T15:37:38;99544.28;;;9.21;65.87
54900;BME280;40801;41.924;25.562;2023-03-03T15:43:00;99549.94;;;9.19;66.12
54900;BME280;40801;41.924;25.562;2023-03-03T15:54:44;99549.94;;;9.19;65.70
54900;BME280;40801;41.924;25.562;2023-03-03T16:07:45;99558.69;;;9.11;66.08
54900;BME280;40801;41.924;25.562;2023-03-03T16:10:33;99563.03;;;9.07;66.96
54900;BME280;40801;41.924;25.562;2023-03-03T16:13:10;99569.72;;;9.10;66.20
54900;BME280;40801;41.924;25.562;2023-03-03T16:27:23;99577.22;;;9.13;65.76
54900;BME280;40801;41.924;25.562;2023-03-03T16:32:49;99578.91;;;9.09;65.95
54900;BME280;40801;41.924;25.562;2023-03-03T16:35:35;99582.53;;;8.99;65.78
54900;BME280;40801;41.924;25.562;2023-03-03T16:41:04;99581.22;;;8.96;67.24
54900;BME280;40801;41.924;25.562;2023-03-03T16:46:12;99591.72;;;8.93;67.54
54900;BME280;40801;41.924;25.562;2023-03-03T16:48:53;99594.19;;;8.89;67.78
54900;BME280;40801;41.924;25.562;2023-03-03T16:51:39;99598.78;;;8.89;67.68
54900;BME280;40801;41.924;25.562;2023-03-03T16:54:26;99598.25;;;8.87;67.71
54900;BME280;40801;41.924;25.562;2023-03-03T17:00:08;99607.34;;;8.91;67.36
54900;BME280;40801;41.924;25.562;2023-03-03T17:02:51;99617.31;;;8.90;67.67
54900;BME280;40801;41.924;25.562;2023-03-03T17:06:39;99620.59;;;8.87;67.75
54900;BME280;40801;41.924;25.562;2023-03-03T17:11:29;99618.69;;;8.88;68.25
54900;BME280;40801;41.924;25.562;2023-03-03T17:25:45;99634.25;;;8.91;67.52
54900;BME280;40801;41.924;25.562;2023-03-03T17:36:36;99643.13;;;8.91;68.22
54900;BME280;40801;41.924;25.562;2023-03-03T17:41:57;99654.09;;;8.95;67.49
54900;BME280;40801;41.924;25.562;2023-03-03T17:55:28;99656.63;;;8.86;69.41
54900;BME280;40801;41.924;25.562;2023-03-03T18:00:38;99672.31;;;8.79;70.37
54900;BME280;40801;41.924;25.562;2023-03-03T18:19:13;99668.75;;;8.60;71.20
54900;BME280;40801;41.924;25.562;2023-03-03T18:21:56;99666.91;;;8.55;71.07
54900;BME280;40801;41.924;25.562;2023-03-03T18:26:49;99673.72;;;8.48;71.44
54900;BME280;40801;41.924;25.562;2023-03-03T18:42:37;99682.59;;;8.09;72.50
54900;BME280;40801;41.924;25.562;2023-03-03T18:50:33;99680.13;;;7.84;72.50